createdAt,value
2019-03-15T00:05:00.787Z,2.33
2019-03-15T00:10:07.282Z,2.57
2019-03-15T00:15:17.039Z,3.00
2019-03-15T00:20:23.596Z,3.17
2019-03-15T00:25:30.119Z,2.90
2019-03-15T00:30:36.678Z,3.43
2019-03-15T00:35:42.790Z,2.87
2019-03-15T00:40:48.918Z,3.47
2019-03-15T00:45:55.244Z,2.97
2019-03-15T00:51:01.484Z,2.77
2019-03-15T00:56:07.706Z,2.63
2019-03-15T01:01:13.946Z,3.77
2019-03-15T01:06:20.303Z,4.13
2019-03-15T01:11:26.608Z,4.00
2019-03-15T01:16:32.868Z,3.50
2019-03-15T01:21:39.102Z,3.30
2019-03-15T01:26:45.153Z,4.07
2019-03-15T01:31:51.357Z,3.40
2019-03-15T01:36:57.806Z,3.63
2019-03-15T01:42:03.978Z,3.93
2019-03-15T01:47:10.443Z,3.80
2019-03-15T01:52:16.637Z,4.07
2019-03-15T01:57:22.682Z,4.13
2019-03-15T02:02:28.755Z,4.40
2019-03-15T02:07:35.838Z,4.80
2019-03-15T02:12:42.257Z,4.33
2019-03-15T02:17:48.479Z,3.90
2019-03-15T02:22:54.564Z,3.63
2019-03-15T02:28:00.710Z,3.60
2019-03-15T02:33:06.859Z,4.20
2019-03-15T02:38:13.086Z,3.93
2019-03-15T02:43:19.389Z,4.40
2019-03-15T02:48:25.541Z,4.03
2019-03-15T02:53:31.722Z,4.10
2019-03-15T02:58:37.881Z,4.10
2019-03-15T03:03:44.331Z,4.07
2019-03-15T03:08:50.538Z,4.23
2019-03-15T03:13:59.785Z,4.53
2019-03-15T03:19:06.360Z,4.20
2019-03-15T03:24:12.678Z,4.07
2019-03-15T03:29:20.412Z,3.13
2019-03-15T03:34:26.755Z,3.77
2019-03-15T03:39:34.318Z,3.60
2019-03-15T03:44:42.302Z,3.40
2019-03-15T03:49:57.154Z,4.03
2019-03-15T03:54:59.999Z,3.17
2019-03-15T04:00:07.697Z,3.43
2019-03-15T04:05:13.810Z,2.70
2019-03-15T04:10:20.154Z,2.60
2019-03-15T04:15:26.397Z,1.90
2019-03-15T04:20:34.835Z,2.40
2019-03-15T04:25:41.427Z,1.93
2019-03-15T04:30:48.089Z,1.90
2019-03-15T04:35:54.434Z,2.00
2019-03-15T04:41:01.092Z,2.17
2019-03-15T04:46:07.486Z,2.27
2019-03-15T04:51:13.866Z,2.73
2019-03-15T04:56:20.095Z,3.97
2019-03-15T05:01:26.292Z,2.80
2019-03-15T05:06:32.267Z,3.30
2019-03-15T05:11:38.504Z,3.50
2019-03-15T05:16:44.680Z,3.00
2019-03-15T05:21:50.906Z,3.40
2019-03-15T05:26:57.391Z,3.70
2019-03-15T05:32:03.523Z,3.17
2019-03-15T05:37:09.727Z,4.27
2019-03-15T05:42:15.834Z,4.07
2019-03-15T05:47:22.304Z,2.90
2019-03-15T05:52:28.548Z,3.70
2019-03-15T05:57:34.875Z,3.30
2019-03-15T06:02:40.915Z,3.70
2019-03-15T06:07:47.038Z,3.70
2019-03-15T06:12:53.232Z,4.10
2019-03-15T06:17:59.345Z,4.30
2019-03-15T06:23:05.483Z,4.27
2019-03-15T06:28:11.915Z,5.10
2019-03-15T06:33:18.501Z,4.93
2019-03-15T06:38:25.252Z,5.63
2019-03-15T06:43:31.350Z,6.27
2019-03-15T06:48:37.755Z,6.13
2019-03-15T06:53:43.918Z,7.47
2019-03-15T06:58:51.875Z,7.67
2019-03-15T07:03:58.154Z,7.20
2019-03-15T07:09:07.278Z,6.93
2019-03-15T07:14:13.805Z,4.13
2019-03-15T07:19:26.370Z,4.70
2019-03-15T07:24:28.462Z,4.20
2019-03-15T07:29:34.833Z,6.67
2019-03-15T07:34:41.622Z,4.07
2019-03-15T11:43:56.219Z,4.60
2019-03-15T11:49:02.214Z,3.23
2019-03-15T11:54:08.311Z,2.93
2019-03-15T11:59:14.734Z,3.00
2019-03-15T12:04:20.809Z,3.37
2019-03-15T12:09:26.876Z,3.07
2019-03-15T12:14:40.764Z,3.63
2019-03-15T12:19:40.732Z,3.50
2019-03-15T12:24:46.624Z,3.67
2019-03-15T12:29:52.699Z,3.67
2019-03-15T12:34:58.661Z,4.40
2019-03-15T12:40:05.976Z,4.87
2019-03-15T12:45:12.176Z,6.03
2019-03-15T12:50:18.243Z,4.93
2019-03-15T12:55:24.523Z,4.23
2019-03-15T13:00:30.579Z,4.83
2019-03-15T13:05:36.691Z,4.90
2019-03-15T13:10:42.732Z,4.80
2019-03-15T13:15:48.863Z,5.00
2019-03-15T13:20:54.814Z,5.43
2019-03-15T13:26:00.944Z,5.43
2019-03-15T13:31:07.054Z,7.43
2019-03-15T13:36:13.153Z,5.27
2019-03-15T13:41:19.765Z,5.35
2019-03-15T13:46:25.986Z,5.30
2019-03-15T13:51:32.245Z,4.83
2019-03-15T13:56:38.385Z,4.10
2019-03-15T14:01:44.386Z,4.47
2019-03-15T14:06:50.349Z,4.97
2019-03-15T14:11:56.442Z,5.00
2019-03-15T14:17:02.534Z,5.20
2019-03-15T14:22:08.541Z,5.30
2019-03-15T14:27:14.603Z,4.90
2019-03-15T14:32:21.650Z,6.00
2019-03-15T14:37:27.804Z,5.67
2019-03-15T14:42:34.108Z,7.07
2019-03-15T14:47:41.040Z,7.27
2019-03-15T14:52:47.072Z,7.73
2019-03-15T14:57:53.725Z,7.33
2019-03-15T15:03:00.086Z,6.67
2019-03-15T15:08:06.274Z,7.37
2019-03-15T15:13:12.402Z,7.20
2019-03-15T15:18:18.594Z,7.10
2019-03-15T15:23:24.650Z,6.80
2019-03-15T15:28:30.624Z,7.23
2019-03-15T15:33:36.727Z,6.30
2019-03-15T15:44:15.554Z,7.47
2019-03-15T15:49:21.655Z,6.10
2019-03-15T15:54:28.349Z,6.67
2019-03-15T15:59:34.534Z,6.27
2019-03-15T16:10:10.263Z,5.47
2019-03-15T16:15:17.748Z,5.33
2019-03-15T16:20:23.788Z,4.80
2019-03-15T16:25:29.994Z,5.70
2019-03-15T16:30:37.223Z,5.23
2019-03-15T16:35:43.352Z,4.77
2019-03-15T16:40:49.439Z,5.20
2019-03-15T16:45:55.647Z,5.80
2019-03-15T16:51:01.679Z,5.70
2019-03-15T16:56:07.913Z,5.97
2019-03-15T17:01:14.078Z,5.73
2019-03-15T17:06:20.210Z,5.33
2019-03-15T17:11:26.190Z,5.30
2019-03-15T17:16:32.198Z,5.37
2019-03-15T17:21:38.333Z,5.83
2019-03-15T17:26:44.378Z,5.23
2019-03-15T17:31:50.608Z,5.80
2019-03-15T17:37:06.167Z,5.37
2019-03-15T17:42:04.483Z,5.67
2019-03-15T17:47:10.565Z,4.53
2019-03-15T17:52:16.842Z,4.80
2019-03-15T17:57:23.026Z,4.27
2019-03-15T18:02:29.097Z,3.77
2019-03-15T18:07:35.331Z,4.10
2019-03-15T18:12:41.499Z,3.77
2019-03-15T18:17:47.804Z,5.00
2019-03-15T18:22:53.982Z,3.67
2019-03-15T18:28:00.082Z,4.00
2019-03-15T18:33:06.359Z,4.00
2019-03-15T18:38:12.491Z,4.10
2019-03-15T18:43:18.810Z,3.67
2019-03-15T18:48:24.824Z,4.10
2019-03-15T18:53:30.946Z,4.20
2019-03-15T18:58:37.031Z,3.60
2019-03-15T19:03:43.114Z,3.57
2019-03-15T19:08:49.202Z,3.27
2019-03-15T19:13:55.348Z,3.20
2019-03-15T19:19:01.519Z,3.33
2019-03-15T19:24:07.627Z,3.40
2019-03-15T19:29:13.933Z,3.47
2019-03-15T19:34:20.005Z,3.53
2019-03-15T19:39:26.298Z,3.83
2019-03-15T19:44:32.534Z,3.70
2019-03-15T19:49:38.751Z,4.60
2019-03-15T19:54:45.007Z,3.80
2019-03-15T19:59:51.082Z,3.27
2019-03-15T20:04:57.078Z,3.00
2019-03-15T20:10:03.259Z,3.13
2019-03-15T20:15:09.927Z,4.03
2019-03-15T20:20:16.263Z,3.10
2019-03-15T20:25:22.367Z,3.40
2019-03-15T20:30:28.429Z,3.50
2019-03-15T20:35:38.098Z,4.70
2019-03-15T20:40:44.446Z,4.47
2019-03-15T20:45:50.722Z,4.40
2019-03-15T20:50:56.977Z,4.60
2019-03-15T20:56:03.102Z,3.80
2019-03-15T21:01:09.278Z,3.20
2019-03-15T21:06:15.453Z,3.20
2019-03-15T21:11:21.753Z,3.90
2019-03-15T21:16:28.128Z,3.07
2019-03-15T21:21:34.301Z,3.33
2019-03-15T21:26:40.414Z,3.10
2019-03-15T21:31:46.796Z,3.50
2019-03-15T21:36:53.097Z,2.47
2019-03-15T21:41:59.345Z,2.63
2019-03-15T21:47:05.484Z,2.87
2019-03-15T21:52:11.978Z,2.30
2019-03-15T21:57:18.061Z,2.00
2019-03-15T22:02:24.174Z,2.33
2019-03-15T22:07:30.483Z,2.03
2019-03-15T22:12:36.701Z,1.53
2019-03-15T22:17:43.204Z,2.20
2019-03-15T22:22:50.779Z,1.60
2019-03-15T22:27:56.974Z,1.37
2019-03-15T22:33:03.988Z,1.90
2019-03-15T22:38:10.105Z,1.63
2019-03-15T22:43:16.420Z,1.83
2019-03-15T22:48:22.704Z,1.70
2019-03-15T22:53:28.784Z,1.90
2019-03-15T22:58:35.061Z,2.20
2019-03-15T23:03:41.250Z,1.73
2019-03-15T23:08:47.416Z,1.70
2019-03-15T23:13:53.423Z,1.70
2019-03-15T23:18:59.478Z,2.03
2019-03-15T23:24:05.742Z,3.27
2019-03-15T23:29:13.095Z,1.57
2019-03-15T23:34:19.255Z,1.80
2019-03-15T23:39:25.995Z,1.90
2019-03-15T23:44:32.050Z,2.03
2019-03-15T23:49:38.059Z,2.13
2019-03-15T23:54:44.246Z,2.27
2019-03-15T23:59:50.374Z,1.83
